Time;durP1;ratioP1;P1;durP2;ratioP2;P2;SDS_P1;SDS_P2;PMS_P1;PMS_P2;Temp;Humidity;BMP_temperature;BMP_pressure;BME280_temperature;BME280_humidity;BME280_pressure;Samples;Min_cycle;Max_cycle;Signal;HPM_P1;HPM_P2
2024/01/13 00:02:07;;;;;;;29.27;16.33;;;;;;;1.55;100.00;102729.00;5282630;28;20040;-71
2024/01/13 00:04:39;;;;;;;26.77;17.03;;;;;;;1.49;100.00;102727.78;5283418;28;20040;-70
2024/01/13 00:07:10;;;;;;;30.17;14.60;;;;;;;1.52;100.00;102726.25;5283386;28;20020;-71
2024/01/13 00:09:41;;;;;;;20.63;13.97;;;;;;;1.52;100.00;102725.38;5283143;28;20115;-71
2024/01/13 00:12:13;;;;;;;19.67;13.53;;;;;;;1.56;100.00;102722.16;5283226;28;20033;-71
2024/01/13 00:14:44;;;;;;;19.43;13.20;;;;;;;1.55;100.00;102721.28;5283221;28;20027;-71
2024/01/13 00:17:16;;;;;;;23.23;13.87;;;;;;;1.61;100.00;102713.94;5283525;28;20040;-71
2024/01/13 00:19:47;;;;;;;23.07;14.70;;;;;;;1.64;100.00;102706.38;5283422;28;20263;-72
2024/01/13 00:22:18;;;;;;;17.93;13.87;;;;;;;1.61;100.00;102701.06;5282865;28;20025;-71
2024/01/13 00:24:50;;;;;;;20.87;13.63;;;;;;;1.59;100.00;102694.94;5283176;28;20033;-72
2024/01/13 00:27:21;;;;;;;16.87;12.67;;;;;;;1.61;100.00;102701.06;5281755;28;20143;-71
2024/01/13 00:29:52;;;;;;;19.17;12.80;;;;;;;1.60;100.00;102700.97;5283317;28;20166;-70
2024/01/13 00:32:24;;;;;;;22.90;13.43;;;;;;;1.65;100.00;102699.53;5283022;28;20059;-71
2024/01/13 00:34:55;;;;;;;19.10;12.87;;;;;;;1.64;100.00;102700.34;5283688;28;20490;-72
2024/01/13 00:37:26;;;;;;;19.03;12.43;;;;;;;1.67;100.00;102700.50;5282971;28;20051;-71
2024/01/13 00:39:58;;;;;;;19.33;12.00;;;;;;;1.67;100.00;102691.91;5283163;28;20120;-71
2024/01/13 00:42:29;;;;;;;14.70;11.73;;;;;;;1.66;100.00;102685.91;5283296;28;20032;-71
2024/01/13 00:45:00;;;;;;;16.57;12.37;;;;;;;1.68;100.00;102680.84;5281520;28;20116;-69
2024/01/13 00:47:32;;;;;;;15.27;11.20;;;;;;;1.72;100.00;102683.63;5282772;28;20449;-71
2024/01/13 00:50:04;;;;;;;17.07;12.63;;;;;;;1.69;100.00;102672.31;5283153;28;20064;-71
2024/01/13 00:52:35;;;;;;;12.98;11.52;;;;;;;1.68;100.00;102674.00;5283008;28;20086;-71
2024/01/13 00:55:08;;;;;;;16.75;11.10;;;;;;;1.70;100.00;102663.81;5283145;28;20216;-71
2024/01/13 00:57:39;;;;;;;16.40;11.70;;;;;;;1.71;100.00;102676.75;5282784;28;20048;-71
2024/01/13 01:00:11;;;;;;;17.37;12.43;;;;;;;1.64;100.00;102674.63;5264978;28;20067;-70
2024/01/13 01:02:42;;;;;;;17.13;12.10;;;;;;;1.62;100.00;102674.53;5283182;28;20129;-71
2024/01/13 01:05:14;;;;;;;16.73;11.60;;;;;;;1.63;100.00;102672.88;5282749;28;20324;-71
2024/01/13 01:07:47;;;;;;;19.57;12.50;;;;;;;1.61;100.00;102662.50;5284601;28;20464;-71
2024/01/13 01:10:19;;;;;;;18.42;11.45;;;;;;;1.62;100.00;102660.81;5287086;28;20103;-71
2024/01/13 01:12:50;;;;;;;14.57;11.50;;;;;;;1.62;100.00;102664.25;5287197;28;20123;-71
2024/01/13 01:15:21;;;;;;;15.63;10.77;;;;;;;1.62;100.00;102666.84;5286827;28;20028;-71
2024/01/13 01:17:53;;;;;;;16.47;11.63;;;;;;;1.62;100.00;102664.25;5286514;28;20056;-70
2024/01/13 01:20:24;;;;;;;15.73;12.00;;;;;;;1.63;100.00;102665.16;5286775;28;20024;-70
2024/01/13 01:22:55;;;;;;;19.33;11.57;;;;;;;1.60;100.00;102658.16;5285401;28;20028;-70
2024/01/13 01:25:27;;;;;;;16.67;12.33;;;;;;;1.64;100.00;102652.41;5286676;28;20479;-71
2024/01/13 01:27:58;;;;;;;16.50;11.73;;;;;;;1.65;100.00;102645.56;5286842;28;20024;-71
2024/01/13 01:30:29;;;;;;;13.43;11.07;;;;;;;1.62;100.00;102641.13;5286553;28;20102;-71
2024/01/13 01:33:01;;;;;;;20.47;12.87;;;;;;;1.61;100.00;102641.03;5286499;28;20024;-71
2024/01/13 01:35:32;;;;;;;15.70;12.70;;;;;;;1.56;100.00;102642.47;5286424;28;20098;-71
2024/01/13 01:38:04;;;;;;;16.17;11.23;;;;;;;1.56;100.00;102637.34;5286386;28;20020;-71
2024/01/13 01:40:36;;;;;;;20.40;11.80;;;;;;;1.56;100.00;102634.78;5286254;28;20033;-71
2024/01/13 01:43:07;;;;;;;19.37;13.10;;;;;;;1.57;100.00;102629.72;5285916;28;20374;-71
2024/01/13 01:45:39;;;;;;;20.13;13.43;;;;;;;1.56;100.00;102619.34;5286184;28;20040;-72
2024/01/13 01:48:10;;;;;;;20.23;12.83;;;;;;;1.54;100.00;102629.53;5286250;28;20029;-71
2024/01/13 01:50:42;;;;;;;17.97;12.93;;;;;;;1.54;100.00;102628.69;5286019;28;20384;-70
2024/01/13 01:53:14;;;;;;;15.50;12.43;;;;;;;1.56;100.00;102632.22;5285697;28;20051;-71
2024/01/13 01:55:46;;;;;;;20.83;15.38;;;;;;;1.54;100.00;102636.38;5285689;28;20033;-71
2024/01/13 01:58:20;;;;;;;17.03;13.90;;;;;;;1.57;100.00;102631.41;5286233;28;20127;-71
2024/01/13 02:00:51;;;;;;;19.55;13.15;;;;;;;1.56;100.00;102620.25;5285906;28;20383;-71
2024/01/13 02:03:23;;;;;;;18.10;13.77;;;;;;;1.59;100.00;102625.53;5286157;28;20025;-71
2024/01/13 02:05:58;;;;;;;17.63;13.17;;;;;;;1.62;100.00;102623.13;5286506;28;20112;-71
2024/01/13 02:08:29;;;;;;;23.33;14.00;;;;;;;1.57;100.00;102618.56;5286127;28;20402;-71
2024/01/13 02:11:00;;;;;;;18.97;13.63;;;;;;;1.59;100.00;102619.53;5285919;28;20029;-71
2024/01/13 02:13:32;;;;;;;18.50;13.07;;;;;;;1.58;100.00;102616.06;5285700;28;20025;-71
2024/01/13 02:16:06;;;;;;;16.17;13.13;;;;;;;1.62;100.00;102610.28;5285446;28;20037;-71
2024/01/13 02:18:39;;;;;;;20.80;15.45;;;;;;;1.60;100.00;102611.88;5284223;28;20032;-71
2024/01/13 02:21:11;;;;;;;17.13;13.80;;;;;;;1.62;100.00;102606.84;5285339;28;20185;-71
2024/01/13 02:23:43;;;;;;;21.65;14.60;;;;;;;1.62;100.00;102593.97;5285423;28;20020;-71
2024/01/13 02:26:14;;;;;;;18.53;14.70;;;;;;;1.64;100.00;102597.50;5285451;28;20081;-71
2024/01/13 02:28:46;;;;;;;18.47;14.43;;;;;;;1.64;100.00;102595.84;5284008;28;20111;-71
2024/01/13 02:31:17;;;;;;;16.03;13.97;;;;;;;1.64;100.00;102583.00;5284342;28;20032;-71
2024/01/13 02:33:50;;;;;;;17.83;13.93;;;;;;;1.64;100.00;102584.66;5285115;28;20068;-71
2024/01/13 02:36:22;;;;;;;19.42;14.50;;;;;;;1.65;100.00;102578.72;5285178;28;20147;-71
2024/01/13 02:38:53;;;;;;;19.67;15.85;;;;;;;1.64;100.00;102576.94;5284650;28;20085;-71
2024/01/13 02:41:24;;;;;;;19.63;15.13;;;;;;;1.64;100.00;102582.09;5285125;28;20112;-71
2024/01/13 02:43:56;;;;;;;16.03;14.33;;;;;;;1.61;100.00;102581.91;5285539;28;20084;-71
2024/01/13 02:46:27;;;;;;;18.77;13.97;;;;;;;1.63;100.00;102577.75;5285104;28;20162;-71
2024/01/13 02:49:00;;;;;;;18.70;14.80;;;;;;;1.66;100.00;102583.06;5285806;28;20043;-72
2024/01/13 02:51:31;;;;;;;18.85;14.52;;;;;;;1.68;100.00;102572.88;5285176;28;20105;-71
2024/01/13 02:54:02;;;;;;;16.90;14.10;;;;;;;1.70;100.00;102572.13;5285099;28;20071;-71
2024/01/13 02:56:34;;;;;;;16.70;14.17;;;;;;;1.68;100.00;102575.44;5284903;28;20476;-72
2024/01/13 02:59:06;;;;;;;18.03;15.60;;;;;;;1.64;100.00;102565.00;5284812;28;20032;-72
2024/01/13 03:01:38;;;;;;;17.45;15.15;;;;;;;1.65;100.00;102553.00;5284693;28;20054;-71
2024/01/13 03:04:09;;;;;;;20.13;14.90;;;;;;;1.64;100.00;102554.72;5284975;28;20028;-72
2024/01/13 03:06:41;;;;;;;20.37;14.87;;;;;;;1.62;100.00;102550.28;5285006;28;20035;-71
2024/01/13 03:09:12;;;;;;;17.10;14.90;;;;;;;1.64;100.00;102547.00;5283183;28;20036;-71
2024/01/13 03:11:44;;;;;;;17.10;14.97;;;;;;;1.67;100.00;102548.81;5284644;28;20028;-72
2024/01/13 03:14:15;;;;;;;18.40;13.73;;;;;;;1.69;100.00;102543.75;5284010;28;20020;-71
2024/01/13 03:16:47;;;;;;;17.40;14.93;;;;;;;1.64;100.00;102539.28;5284034;28;20420;-72
2024/01/13 03:19:18;;;;;;;15.97;13.43;;;;;;;1.68;100.00;102535.19;5284360;28;20046;-71
2024/01/13 03:21:49;;;;;;;15.47;13.33;;;;;;;1.70;100.00;102520.72;5283152;28;20130;-70
2024/01/13 03:24:21;;;;;;;16.90;13.63;;;;;;;1.70;100.00;102520.72;5284216;28;20467;-71
2024/01/13 03:26:52;;;;;;;13.70;12.30;;;;;;;1.70;100.00;102512.13;5284212;28;20020;-72
2024/01/13 03:29:23;;;;;;;15.73;12.70;;;;;;;1.74;100.00;102507.22;5284069;28;20036;-71
2024/01/13 03:31:55;;;;;;;14.37;11.80;;;;;;;1.73;100.00;102499.44;5283241;28;20528;-71
2024/01/13 03:34:26;;;;;;;12.80;10.27;;;;;;;1.74;100.00;102493.47;5284060;28;20089;-70
2024/01/13 03:36:57;;;;;;;13.07;10.57;;;;;;;1.77;100.00;102496.19;5284411;28;20124;-71
2024/01/13 03:39:29;;;;;;;11.50;9.63;;;;;;;1.77;100.00;102489.38;5283725;28;20032;-71
2024/01/13 03:42:00;;;;;;;12.30;9.87;;;;;;;1.79;100.00;102495.47;5282917;28;20028;-71
2024/01/13 03:44:31;;;;;;;10.57;9.33;;;;;;;1.81;100.00;102491.28;5282242;28;20454;-71
2024/01/13 03:47:03;;;;;;;12.63;9.10;;;;;;;1.76;100.00;102497.88;5284301;28;20372;-71
2024/01/13 03:49:35;;;;;;;10.13;8.90;;;;;;;1.78;100.00;102485.09;5283819;28;20123;-71
2024/01/13 03:52:06;;;;;;;9.63;8.40;;;;;;;1.78;100.00;102474.81;5283748;28;20116;-71
2024/01/13 03:54:38;;;;;;;13.43;8.30;;;;;;;1.76;100.00;102472.19;5283640;28;20037;-71
2024/01/13 03:57:09;;;;;;;9.83;7.83;;;;;;;1.78;100.00;102472.25;5283592;28;20143;-71
2024/01/13 03:59:40;;;;;;;9.33;7.70;;;;;;;1.77;100.00;102475.63;5283598;28;20383;-71
2024/01/13 04:02:12;;;;;;;9.43;7.97;;;;;;;1.79;100.00;102469.75;5283555;28;20039;-71
2024/01/13 04:04:43;;;;;;;9.10;7.33;;;;;;;1.79;100.00;102474.91;5283380;28;20111;-71
2024/01/13 04:07:15;;;;;;;11.37;7.57;;;;;;;1.79;100.00;102466.31;5283466;28;20033;-71
2024/01/13 04:09:46;;;;;;;8.53;7.50;;;;;;;1.77;100.00;102471.38;5283109;28;20025;-71
2024/01/13 04:12:17;;;;;;;8.53;7.60;;;;;;;1.75;100.00;102465.25;5283267;28;20058;-70
2024/01/13 04:14:49;;;;;;;9.40;8.13;;;;;;;1.73;100.00;102466.88;5283157;28;20032;-71
2024/01/13 04:17:20;;;;;;;9.57;8.03;;;;;;;1.70;100.00;102456.44;5283260;28;20064;-71
2024/01/13 04:19:51;;;;;;;8.83;6.90;;;;;;;1.68;100.00;102452.03;5283619;28;20147;-71
2024/01/13 04:22:23;;;;;;;9.60;8.00;;;;;;;1.65;100.00;102447.63;5283645;28;20048;-71
2024/01/13 04:24:54;;;;;;;11.43;8.33;;;;;;;1.62;100.00;102442.31;5283195;28;20032;-71
2024/01/13 04:27:26;;;;;;;10.00;6.97;;;;;;;1.60;100.00;102443.94;5283209;28;20111;-71
2024/01/13 04:29:57;;;;;;;10.37;7.30;;;;;;;1.56;100.00;102439.44;5282753;28;20036;-71
2024/01/13 04:32:28;;;;;;;10.07;7.70;;;;;;;1.55;100.00;102441.13;5282725;28;20115;-70
2024/01/13 04:35:00;;;;;;;11.27;8.20;;;;;;;1.55;100.00;102436.00;5283092;28;20029;-71
2024/01/13 04:37:31;;;;;;;14.43;8.50;;;;;;;1.55;100.00;102443.69;5283147;28;20037;-71
2024/01/13 04:40:03;;;;;;;11.50;8.83;;;;;;;1.55;100.00;102436.00;5282752;28;20135;-71
2024/01/13 04:42:35;;;;;;;10.57;9.05;;;;;;;1.56;100.00;102435.19;5282206;28;20048;-70
2024/01/13 04:45:07;;;;;;;11.50;8.57;;;;;;;1.54;100.00;102433.34;5282820;28;20067;-71
2024/01/13 04:47:38;;;;;;;12.93;9.88;;;;;;;1.56;100.00;102436.84;5281945;28;20451;-70
2024/01/13 04:50:10;;;;;;;12.53;9.43;;;;;;;1.58;100.00;102430.13;5282838;28;20122;-70
2024/01/13 04:52:41;;;;;;;11.00;8.43;;;;;;;1.60;100.00;102439.66;5281438;28;20488;-71
2024/01/13 04:55:12;;;;;;;10.70;8.53;;;;;;;1.62;100.00;102434.59;5281138;28;20424;-70
2024/01/13 04:57:44;;;;;;;11.20;9.80;;;;;;;1.59;100.00;102437.88;5283317;28;20388;-70
2024/01/13 05:00:16;;;;;;;11.50;9.00;;;;;;;1.56;100.00;102429.16;5282734;28;20071;-72
2024/01/13 05:02:47;;;;;;;13.35;10.50;;;;;;;1.55;100.00;102415.44;5282736;28;20029;-70
2024/01/13 05:05:19;;;;;;;11.50;9.27;;;;;;;1.57;100.00;102423.22;5281386;28;20037;-70
2024/01/13 05:07:50;;;;;;;12.47;10.37;;;;;;;1.59;100.00;102422.47;5283146;28;20108;-71
2024/01/13 05:10:22;;;;;;;15.67;10.77;;;;;;;1.57;100.00;102431.78;5282866;28;20128;-71
2024/01/13 05:12:54;;;;;;;13.48;11.13;;;;;;;1.57;100.00;102428.34;5283096;28;20041;-72
2024/01/13 05:15:25;;;;;;;14.30;11.53;;;;;;;1.57;100.00;102428.34;5283028;28;20449;-71
2024/01/13 05:17:56;;;;;;;16.23;13.17;;;;;;;1.56;100.00;102422.34;5282649;28;20111;-71
2024/01/13 05:20:28;;;;;;;16.80;13.77;;;;;;;1.55;100.00;102415.44;5282251;28;20031;-71
2024/01/13 05:22:59;;;;;;;18.93;14.80;;;;;;;1.52;100.00;102416.97;5282530;28;20040;-71
2024/01/13 05:25:30;;;;;;;23.63;16.10;;;;;;;1.52;100.00;102422.09;5282181;28;20040;-72
2024/01/13 05:28:03;;;;;;;19.83;16.40;;;;;;;1.51;100.00;102418.63;5282374;28;20181;-71
2024/01/13 05:30:35;;;;;;;24.23;19.30;;;;;;;1.51;100.00;102412.63;5282083;28;20021;-71
2024/01/13 05:33:06;;;;;;;23.17;18.07;;;;;;;1.50;100.00;102416.88;5282989;28;20472;-70
2024/01/13 05:35:37;;;;;;;23.83;19.80;;;;;;;1.53;100.00;102418.72;5282088;28;20058;-72
2024/01/13 05:38:09;;;;;;;23.47;18.83;;;;;;;1.48;100.00;102413.34;5282666;28;20028;-72
2024/01/13 05:40:43;;;;;;;24.67;20.27;;;;;;;1.50;100.00;102413.41;5282408;28;20086;-71
2024/01/13 05:43:15;;;;;;;28.15;21.52;;;;;;;1.50;100.00;102414.31;5282318;28;20116;-71
2024/01/13 05:45:46;;;;;;;25.77;22.00;;;;;;;1.49;100.00;102402.25;5283056;28;20107;-71
2024/01/13 05:48:18;;;;;;;35.40;29.50;;;;;;;1.48;100.00;102413.34;5282869;28;20104;-71
2024/01/13 05:50:49;;;;;;;32.03;25.70;;;;;;;1.49;100.00;102409.09;5282280;28;20132;-71
2024/01/13 05:53:20;;;;;;;30.37;26.00;;;;;;;1.51;100.00;102405.78;5283595;28;20025;-72
2024/01/13 05:55:53;;;;;;;32.87;27.17;;;;;;;1.48;100.00;102405.63;5286162;28;20424;-71
2024/01/13 05:58:25;;;;;;;32.72;25.88;;;;;;;1.52;100.00;102411.81;5286533;28;20520;-70
2024/01/13 06:00:56;;;;;;;40.27;30.97;;;;;;;1.47;100.00;102410.72;5285997;28;20173;-70
2024/01/13 06:03:27;;;;;;;33.70;27.47;;;;;;;1.49;100.00;102414.25;5285876;28;20036;-70
2024/01/13 06:05:59;;;;;;;33.57;28.00;;;;;;;1.48;100.00;102412.47;5286122;28;20122;-70
2024/01/13 06:08:30;;;;;;;34.37;29.00;;;;;;;1.45;100.00;102421.78;5285852;28;20025;-72
2024/01/13 06:11:02;;;;;;;35.03;30.53;;;;;;;1.43;100.00;102423.41;5286285;28;20024;-71
2024/01/13 06:13:33;;;;;;;40.37;31.20;;;;;;;1.44;100.00;102422.59;5285635;28;20058;-71
2024/01/13 06:16:05;;;;;;;37.30;30.87;;;;;;;1.48;100.00;102413.34;5284381;28;20032;-71
2024/01/13 06:18:36;;;;;;;38.13;31.93;;;;;;;1.51;100.00;102410.06;5285737;28;20072;-71
2024/01/13 06:21:07;;;;;;;39.73;31.33;;;;;;;1.49;100.00;102399.69;5285716;28;20051;-71
2024/01/13 06:23:39;;;;;;;41.03;31.87;;;;;;;1.52;100.00;102391.25;5285571;28;20025;-71
2024/01/13 06:26:11;;;;;;;41.37;31.07;;;;;;;1.55;100.00;102394.88;5286016;28;20037;-72
2024/01/13 06:28:42;;;;;;;39.47;31.27;;;;;;;1.53;100.00;102381.06;5285732;28;20027;-72
2024/01/13 06:31:14;;;;;;;41.23;33.47;;;;;;;1.52;100.00;102374.16;5285659;28;20028;-71
2024/01/13 06:33:45;;;;;;;34.80;30.77;;;;;;;1.52;100.00;102373.28;5285630;28;20112;-71
2024/01/13 06:36:16;;;;;;;40.03;32.43;;;;;;;1.52;100.00;102355.28;5285777;28;20029;-71
2024/01/13 06:38:48;;;;;;;35.83;29.73;;;;;;;1.54;100.00;102351.09;5285217;28;20028;-71
2024/01/13 06:41:19;;;;;;;44.17;31.87;;;;;;;1.53;100.00;102357.94;5285520;28;20040;-71
2024/01/13 06:43:51;;;;;;;38.80;31.57;;;;;;;1.53;100.00;102346.75;5285696;28;20133;-71
2024/01/13 06:46:22;;;;;;;38.57;32.57;;;;;;;1.54;100.00;102353.66;5285253;28;20068;-70
2024/01/13 06:48:54;;;;;;;39.90;31.87;;;;;;;1.53;100.00;102365.66;5283853;28;20031;-70
2024/01/13 06:51:25;;;;;;;38.37;32.50;;;;;;;1.54;100.00;102351.09;5285042;28;20332;-71
2024/01/13 06:53:56;;;;;;;40.00;32.87;;;;;;;1.51;100.00;102362.09;5284823;28;20039;-71
2024/01/13 06:56:28;;;;;;;37.50;31.60;;;;;;;1.49;100.00;102365.41;5284592;28;20094;-71
2024/01/13 06:58:59;;;;;;;43.10;35.37;;;;;;;1.47;100.00;102352.47;5285420;28;20056;-71
2024/01/13 07:01:30;;;;;;;38.73;30.80;;;;;;;1.46;100.00;102335.28;5284880;28;20107;-70
2024/01/13 07:04:02;;;;;;;37.17;30.00;;;;;;;1.51;100.00;102315.84;5284837;28;20020;-70
2024/01/13 07:06:33;;;;;;;40.60;31.27;;;;;;;1.49;100.00;102326.88;5284400;28;20111;-71
2024/01/13 07:09:05;;;;;;;37.87;29.50;;;;;;;1.49;100.00;102319.16;5283333;28;20431;-70
2024/01/13 07:11:36;;;;;;;39.50;30.60;;;;;;;1.51;100.00;102320.09;5284883;28;20055;-70
2024/01/13 07:14:07;;;;;;;37.10;31.50;;;;;;;1.44;100.00;102309.50;5284163;28;20030;-71
2024/01/13 07:16:39;;;;;;;37.53;30.60;;;;;;;1.47;100.00;102303.66;5284452;28;20062;-71
2024/01/13 07:19:10;;;;;;;38.63;31.17;;;;;;;1.51;100.00;102297.84;5284419;28;20025;-71
2024/01/13 07:21:42;;;;;;;42.70;33.60;;;;;;;1.45;100.00;102295.88;5284010;28;20058;-70
2024/01/13 07:24:13;;;;;;;44.13;33.60;;;;;;;1.47;100.00;102293.38;5284275;28;20020;-71
2024/01/13 07:26:45;;;;;;;44.50;33.63;;;;;;;1.47;100.00;102292.50;5283772;28;20687;-71
2024/01/13 07:29:16;;;;;;;41.73;33.67;;;;;;;1.44;100.00;102291.53;5282933;28;20108;-70
2024/01/13 07:31:48;;;;;;;52.30;35.13;;;;;;;1.42;100.00;102282.88;5283891;28;20089;-71
2024/01/13 07:34:19;;;;;;;39.53;32.70;;;;;;;1.42;100.00;102282.88;5284494;28;20032;-71
2024/01/13 07:36:50;;;;;;;42.07;33.33;;;;;;;1.40;100.00;102273.31;5284228;28;20082;-71
2024/01/13 07:39:22;;;;;;;42.50;32.50;;;;;;;1.44;100.00;102270.09;5282657;28;20112;-71
2024/01/13 07:41:53;;;;;;;43.13;33.70;;;;;;;1.42;100.00;102277.72;5283844;28;20025;-71
2024/01/13 07:44:25;;;;;;;48.27;34.63;;;;;;;1.43;100.00;102296.59;5283803;28;20036;-71
2024/01/13 07:47:01;;;;;;;42.23;34.17;;;;;;;1.42;100.00;102282.88;5283888;28;20044;-71
2024/01/13 07:49:32;;;;;;;41.95;34.15;;;;;;;1.44;100.00;102276.09;5284428;28;20113;-71
2024/01/13 07:52:04;;;;;;;45.53;35.80;;;;;;;1.45;100.00;102277.88;5283318;28;20111;-71
2024/01/13 07:54:35;;;;;;;41.33;34.57;;;;;;;1.45;100.00;102267.59;5283584;28;20422;-71
2024/01/13 07:57:06;;;;;;;46.50;35.47;;;;;;;1.47;100.00;102261.66;5282943;28;20454;-74
2024/01/13 07:59:38;;;;;;;42.23;34.20;;;;;;;1.48;100.00;102248.84;5283052;28;20407;-74
2024/01/13 08:02:09;;;;;;;43.73;33.47;;;;;;;1.51;100.00;102243.00;5283420;28;20419;-73
2024/01/13 08:04:42;;;;;;;40.80;33.67;;;;;;;1.52;100.00;102230.22;5283799;28;20056;-73
2024/01/13 08:07:14;;;;;;;39.70;31.95;;;;;;;1.53;100.00;102256.78;5283191;28;20139;-73
2024/01/13 08:09:47;;;;;;;37.33;31.33;;;;;;;1.55;100.00;102258.66;5282955;28;20036;-73
2024/01/13 08:12:18;;;;;;;37.08;31.15;;;;;;;1.57;100.00;102243.28;5283157;28;20028;-74
2024/01/13 08:14:50;;;;;;;42.17;33.23;;;;;;;1.57;100.00;102233.88;5283090;28;20467;-74
2024/01/13 08:17:21;;;;;;;39.37;33.67;;;;;;;1.58;100.00;102220.25;5282318;28;20468;-74
2024/01/13 08:19:52;;;;;;;39.53;32.10;;;;;;;1.60;100.00;102228.03;5282915;28;20426;-73
2024/01/13 08:22:24;;;;;;;43.17;31.33;;;;;;;1.61;100.00;102234.91;5282789;28;20063;-72
2024/01/13 08:24:55;;;;;;;36.33;31.23;;;;;;;1.61;100.00;102240.03;5283017;28;20032;-73
2024/01/13 08:27:27;;;;;;;38.33;32.40;;;;;;;1.60;100.00;102215.16;5282937;28;20032;-73
2024/01/13 08:29:58;;;;;;;37.50;30.53;;;;;;;1.63;100.00;102212.75;5283110;28;20036;-73
2024/01/13 08:32:29;;;;;;;39.87;30.83;;;;;;;1.66;100.00;102206.84;5282482;28;20492;-72
2024/01/13 08:35:01;;;;;;;36.27;29.67;;;;;;;1.64;100.00;102211.91;5282827;28;20039;-73
2024/01/13 08:37:32;;;;;;;38.80;30.70;;;;;;;1.63;100.00;102223.91;5283014;28;20051;-74
2024/01/13 08:40:05;;;;;;;37.90;30.87;;;;;;;1.64;100.00;102209.34;5282685;28;20035;-73
2024/01/13 08:42:37;;;;;;;38.25;30.73;;;;;;;1.64;100.00;102210.25;5281502;28;20111;-74
2024/01/13 08:45:09;;;;;;;38.17;30.92;;;;;;;1.65;100.00;102211.13;5283280;28;20174;-74
2024/01/13 08:47:40;;;;;;;38.73;32.83;;;;;;;1.66;100.00;102212.00;5282843;28;20111;-72
2024/01/13 08:50:12;;;;;;;40.07;33.03;;;;;;;1.66;100.00;102223.19;5281524;28;20107;-72
2024/01/13 08:52:43;;;;;;;41.23;34.30;;;;;;;1.66;100.00;102233.47;5281046;28;20106;-72
2024/01/13 08:55:15;;;;;;;41.03;32.27;;;;;;;1.68;100.00;102234.41;5282548;28;20584;-73
2024/01/13 08:57:46;;;;;;;38.73;33.50;;;;;;;1.69;100.00;102233.59;5282960;28;20056;-74
2024/01/13 09:00:18;;;;;;;42.97;32.50;;;;;;;1.71;100.00;102224.28;5282774;28;20112;-74
2024/01/13 09:02:50;;;;;;;43.95;35.90;;;;;;;1.71;100.00;102231.09;5282796;28;20032;-72
2024/01/13 09:05:21;;;;;;;39.70;34.57;;;;;;;1.72;100.00;102228.56;5282815;28;20036;-73
2024/01/13 09:07:54;;;;;;;41.67;35.23;;;;;;;1.74;100.00;102226.06;5282527;28;20029;-72
2024/01/13 09:10:25;;;;;;;38.75;32.75;;;;;;;1.74;100.00;102233.78;5282436;28;20089;-73
2024/01/13 09:12:57;;;;;;;39.53;33.13;;;;;;;1.77;100.00;102224.56;5282290;28;20120;-73
2024/01/13 09:15:28;;;;;;;38.03;33.80;;;;;;;1.80;100.00;102227.28;5282404;28;20043;-73
2024/01/13 09:18:02;;;;;;;46.50;35.97;;;;;;;1.78;100.00;102226.28;5282597;28;20140;-73
2024/01/13 09:20:34;;;;;;;40.28;32.67;;;;;;;1.80;100.00;102234.09;5283085;28;20032;-73
2024/01/13 09:23:06;;;;;;;38.83;32.07;;;;;;;1.81;100.00;102223.88;5282584;28;20029;-73
2024/01/13 09:25:37;;;;;;;39.70;32.07;;;;;;;1.81;100.00;102229.00;5280860;28;20028;-73
2024/01/13 09:28:09;;;;;;;40.93;33.07;;;;;;;1.84;100.00;102230.00;5283715;28;20043;-73
2024/01/13 09:30:42;;;;;;;38.83;31.50;;;;;;;1.82;100.00;102230.78;5287036;28;20028;-73
2024/01/13 09:33:13;;;;;;;35.25;31.25;;;;;;;1.82;100.00;102217.94;5286680;28;20460;-73
2024/01/13 09:35:45;;;;;;;38.53;30.20;;;;;;;1.85;100.00;102221.44;5286211;28;20033;-73
2024/01/13 09:38:16;;;;;;;34.57;29.10;;;;;;;1.84;100.00;102224.84;5286148;28;20028;-73
2024/01/13 09:40:48;;;;;;;34.20;29.17;;;;;;;1.86;100.00;102218.06;5285428;28;20136;-73
2024/01/13 09:43:36;;;;;;;35.83;29.13;;;;;;;1.90;100.00;102217.38;5286017;28;20055;-72
2024/01/13 09:46:07;;;;;;;33.33;29.65;;;;;;;1.87;100.00;102213.00;5286410;28;20082;-75
2024/01/13 09:48:40;;;;;;;35.17;28.17;;;;;;;1.89;100.00;102211.38;5285698;28;20036;-73
2024/01/13 09:51:12;;;;;;;31.38;27.63;;;;;;;1.90;100.00;102207.09;5286471;28;20032;-73
2024/01/13 09:53:53;;;;;;;32.73;27.93;;;;;;;1.89;100.00;102210.50;5285941;28;20035;-74
2024/01/13 09:56:32;;;;;;;30.85;27.55;;;;;;;1.87;100.00;102205.28;5285829;28;20053;-71
2024/01/13 09:59:03;;;;;;;30.13;26.83;;;;;;;1.89;100.00;102203.66;5286220;28;20047;-73
2024/01/13 10:01:36;;;;;;;32.53;28.43;;;;;;;1.88;100.00;102198.44;5285880;28;20036;-74
2024/01/13 10:04:08;;;;;;;28.23;25.15;;;;;;;1.88;100.00;102198.44;5285678;28;20115;-73
2024/01/13 10:06:40;;;;;;;29.10;26.02;;;;;;;1.91;100.00;102201.16;5285565;28;20020;-74
2024/01/13 10:09:11;;;;;;;28.80;25.70;;;;;;;1.91;100.00;102196.88;5285858;28;20051;-74
2024/01/13 10:11:43;;;;;;;28.93;25.83;;;;;;;1.95;100.00;102195.34;5285534;28;20463;-72
2024/01/13 10:14:14;;;;;;;29.90;26.00;;;;;;;1.95;100.00;102187.63;5285814;28;20056;-73
2024/01/13 10:16:46;;;;;;;28.10;25.03;;;;;;;1.99;100.00;102190.38;5285020;28;20438;-72
2024/01/13 10:19:17;;;;;;;28.87;25.70;;;;;;;1.95;100.00;102190.22;5284524;28;20490;-73
2024/01/13 10:21:52;;;;;;;29.33;26.30;;;;;;;1.99;100.00;102187.81;5285539;28;20072;-73
2024/01/13 10:24:24;;;;;;;29.88;26.77;;;;;;;1.98;100.00;102185.19;5286018;28;20020;-73
2024/01/13 10:26:55;;;;;;;31.37;26.40;;;;;;;2.02;100.00;102184.53;5283859;28;20071;-73
2024/01/13 10:29:26;;;;;;;27.80;24.77;;;;;;;2.03;100.00;102175.09;5285279;28;20044;-73
2024/01/13 10:32:01;;;;;;;28.77;24.40;;;;;;;1.98;100.00;102180.03;5285273;28;20491;-72
2024/01/13 10:34:32;;;;;;;30.73;24.92;;;;;;;2.02;100.00;102181.94;5285209;28;20035;-73
2024/01/13 10:37:10;;;;;;;27.37;24.00;;;;;;;2.02;100.00;102170.78;5283690;28;20036;-73
2024/01/13 10:39:41;;;;;;;28.65;23.08;;;;;;;2.04;100.00;102174.31;5284229;28;20082;-73
2024/01/13 10:42:18;;;;;;;26.70;23.90;;;;;;;2.04;100.00;102167.44;5285062;28;20029;-73
2024/01/13 10:44:56;;;;;;;26.20;22.92;;;;;;;2.03;100.00;102167.38;5285376;28;20032;-73
2024/01/13 10:47:31;;;;;;;24.45;21.83;;;;;;;1.99;100.00;102162.09;5285587;28;20448;-73
2024/01/13 10:50:02;;;;;;;26.90;24.10;;;;;;;2.02;100.00;102168.22;5285034;28;20418;-73
2024/01/13 10:52:41;;;;;;;27.93;22.97;;;;;;;2.01;100.00;102159.59;5284703;28;20029;-73
2024/01/13 10:55:13;;;;;;;27.88;22.75;;;;;;;2.02;100.00;102161.38;5284660;28;20043;-73
2024/01/13 10:57:47;;;;;;;33.45;25.75;;;;;;;2.02;100.00;102152.78;5284610;28;20052;-72
2024/01/13 11:00:19;;;;;;;28.65;24.15;;;;;;;2.03;100.00;102160.56;5284789;28;20133;-73
2024/01/13 11:02:52;;;;;;;27.98;24.98;;;;;;;2.03;100.00;102146.81;5287580;28;20522;-72
2024/01/13 11:05:28;;;;;;;27.75;24.85;;;;;;;2.04;100.00;102141.72;5284656;28;20043;-71
2024/01/13 11:08:03;;;;;;;27.42;24.42;;;;;;;2.06;100.00;102134.09;5284574;28;20097;-73
2024/01/13 11:10:40;;;;;;;27.88;24.83;;;;;;;2.08;100.00;102135.06;5284387;28;20115;-73
2024/01/13 11:13:37;;;;;;;27.10;24.20;;;;;;;2.06;100.00;102131.50;5284482;28;20352;-73
2024/01/13 11:16:13;;;;;;;28.67;25.38;;;;;;;2.04;100.00;102134.00;5284759;28;20032;-73
2024/01/13 11:18:52;;;;;;;25.95;23.20;;;;;;;2.04;100.00;102134.00;5283215;28;20119;-73
2024/01/13 11:21:32;;;;;;;27.60;24.17;;;;;;;2.06;100.00;102127.28;5283678;28;20035;-72
2024/01/13 11:24:10;;;;;;;27.67;23.70;;;;;;;2.12;100.00;102111.22;5283702;28;20034;-73
2024/01/13 11:26:49;;;;;;;24.65;21.80;;;;;;;2.12;100.00;102119.78;5284115;28;20074;-73
2024/01/13 11:29:24;;;;;;;26.77;23.15;;;;;;;2.11;100.00;102107.75;5283659;28;20024;-74
2024/01/13 11:32:02;;;;;;;24.48;21.88;;;;;;;2.14;100.00;102109.56;5284289;28;20039;-74